Terminal Aerodrome Forecast
Issued by NWS Wilmington, OH

Current Version | Previous Version | Graphics & Text | Print | Product List | Glossary On
Versions: 1 2 3 4 5 6 7 8 9 10 11 12 13 14 15 16 17 18 19
000
FTUS41 KILN 181400 AAA
TAFDAY
TAF AMD
KDAY 181407Z 1814/1912 01005KT P6SM BKN045
     FM181800 03006KT P6SM VCSH BKN040
     FM190100 VRB04KT P6SM BKN100=

USA.gov is the U.S. government's official web portal to all federal, state and local government web resources and services.